createdAt,value
2024-03-09T00:01:10.148Z,22.80
2024-03-09T00:03:37.695Z,22.50
2024-03-09T00:06:05.253Z,22.08
2024-03-09T00:08:33.637Z,22.17
2024-03-09T00:11:02.096Z,21.13
2024-03-09T00:13:30.026Z,21.38
2024-03-09T00:15:57.964Z,23.00
2024-03-09T00:18:36.425Z,22.42
2024-03-09T00:21:10.774Z,21.83
2024-03-09T00:23:38.399Z,22.00
2024-03-09T00:26:07.220Z,22.17
2024-03-09T00:28:34.208Z,22.17
2024-03-09T00:31:01.627Z,22.63
2024-03-09T00:33:29.784Z,22.67
2024-03-09T00:35:56.660Z,23.17
2024-03-09T00:38:25.410Z,22.88
2024-03-09T00:40:52.599Z,21.75
2024-03-09T00:43:19.601Z,23.17
2024-03-09T00:45:46.479Z,22.67
2024-03-09T00:48:14.521Z,22.63
2024-03-09T00:50:43.519Z,23.60
2024-03-09T00:53:11.062Z,23.38
2024-03-09T00:55:38.263Z,22.05
2024-03-09T00:58:07.228Z,22.20
2024-03-09T01:00:34.451Z,25.65
2024-03-09T01:03:01.596Z,23.63
2024-03-09T01:05:29.586Z,23.60
2024-03-09T01:07:58.385Z,22.85
2024-03-09T01:10:25.583Z,24.50
2024-03-09T01:12:52.439Z,23.15
2024-03-09T01:15:20.300Z,23.45
2024-03-09T01:17:47.369Z,23.88
2024-03-09T01:20:15.088Z,25.30
2024-03-09T01:22:45.412Z,24.33
2024-03-09T01:25:13.675Z,24.08
2024-03-09T01:27:40.911Z,23.83
2024-03-09T01:30:10.441Z,25.05
2024-03-09T01:32:37.915Z,25.80
2024-03-09T01:35:05.426Z,25.65
2024-03-09T01:37:32.417Z,24.98
2024-03-09T01:39:59.644Z,26.73
2024-03-09T01:42:27.943Z,26.48
2024-03-09T01:44:54.909Z,25.70
2024-03-09T01:47:27.369Z,24.52
2024-03-09T01:49:58.349Z,26.20
2024-03-09T01:52:28.100Z,27.45
2024-03-09T01:54:56.254Z,25.30
2024-03-09T01:57:23.440Z,26.27
2024-03-09T01:59:55.669Z,25.70
2024-03-09T02:02:24.652Z,26.60
2024-03-09T02:04:52.508Z,27.35
2024-03-09T02:07:19.711Z,27.13
2024-03-09T02:09:50.020Z,26.98
2024-03-09T02:12:19.088Z,27.23
2024-03-09T02:14:46.619Z,26.95
2024-03-09T02:17:14.834Z,27.25
2024-03-09T02:19:42.590Z,26.65
2024-03-09T02:22:12.481Z,28.17
2024-03-09T02:24:44.017Z,27.40
2024-03-09T02:27:11.514Z,28.42
2024-03-09T02:29:39.374Z,27.92
2024-03-09T02:32:08.112Z,27.42
2024-03-09T02:34:35.546Z,28.90
2024-03-09T02:37:04.333Z,27.63
2024-03-09T02:39:32.041Z,28.70
2024-03-09T02:42:00.236Z,28.58
2024-03-09T02:44:30.216Z,29.05
2024-03-09T02:46:57.177Z,29.05
2024-03-09T02:49:26.329Z,29.10
2024-03-09T02:51:55.228Z,28.67
2024-03-09T02:54:24.286Z,30.27
2024-03-09T02:56:51.434Z,28.25
2024-03-09T02:59:18.447Z,29.77
2024-03-09T03:01:48.194Z,29.48
2024-03-09T03:04:16.480Z,28.00
2024-03-09T03:06:45.227Z,29.48
2024-03-09T03:09:13.641Z,29.42
2024-03-09T03:11:44.210Z,29.42
2024-03-09T03:14:11.907Z,29.58
2024-03-09T03:16:39.323Z,28.48
2024-03-09T03:19:07.944Z,30.15
2024-03-09T03:21:36.147Z,29.58
2024-03-09T03:24:03.655Z,29.60
2024-03-09T03:26:34.010Z,30.20
2024-03-09T03:29:03.303Z,31.17
2024-03-09T03:31:30.925Z,30.70
2024-03-09T03:33:58.421Z,29.90
2024-03-09T03:36:25.597Z,31.35
2024-03-09T03:38:52.585Z,29.45
2024-03-09T03:41:23.760Z,32.05
2024-03-09T03:43:51.655Z,31.77
2024-03-09T03:46:18.895Z,31.80
2024-03-09T03:48:46.611Z,32.05
2024-03-09T03:51:15.361Z,31.10
2024-03-09T03:53:45.725Z,30.63
2024-03-09T03:56:15.588Z,31.13
2024-03-09T03:58:45.786Z,30.98
2024-03-09T04:01:13.172Z,31.23
2024-03-09T04:03:40.722Z,31.55
2024-03-09T04:06:08.861Z,31.40
2024-03-09T04:08:36.512Z,31.10
2024-03-09T04:11:13.018Z,32.75
2024-03-09T04:13:41.410Z,34.50
2024-03-09T04:16:09.489Z,33.67
2024-03-09T04:18:38.068Z,31.88
2024-03-09T04:21:06.406Z,33.00
2024-03-09T04:23:35.740Z,32.70
2024-03-09T04:26:04.126Z,32.25
2024-03-09T04:28:34.221Z,32.35
2024-03-09T04:31:01.922Z,33.75
2024-03-09T04:33:29.843Z,33.83
2024-03-09T04:35:58.726Z,33.38
2024-03-09T04:38:27.516Z,32.65
2024-03-09T04:40:56.267Z,34.65
2024-03-09T04:43:24.178Z,33.35
2024-03-09T04:45:58.711Z,32.63
2024-03-09T04:48:26.158Z,32.47
2024-03-09T04:50:53.141Z,32.85
2024-03-09T04:53:20.949Z,30.98
2024-03-09T04:55:53.225Z,32.50
2024-03-09T04:58:22.971Z,32.25
2024-03-09T05:00:49.917Z,32.75
2024-03-09T05:03:19.297Z,34.47
2024-03-09T05:05:46.982Z,32.92
2024-03-09T05:08:15.659Z,33.15
2024-03-09T05:10:43.298Z,34.10
2024-03-09T05:13:11.577Z,31.20
2024-03-09T05:15:39.171Z,31.67
2024-03-09T05:18:13.169Z,34.17
2024-03-09T05:20:41.051Z,23.42
2024-03-09T05:23:13.645Z,32.60
2024-03-09T05:25:44.274Z,32.97
2024-03-09T05:28:32.545Z,35.15
2024-03-09T05:31:01.117Z,35.28
2024-03-09T05:33:29.438Z,36.67
2024-03-09T05:35:56.454Z,37.70
2024-03-09T05:38:36.877Z,39.42
2024-03-09T05:41:04.039Z,37.40
2024-03-09T05:43:37.582Z,39.35
2024-03-09T05:46:09.023Z,37.88
2024-03-09T05:48:37.522Z,38.72
2024-03-09T05:51:09.155Z,39.40
2024-03-09T05:53:40.307Z,38.03
2024-03-09T05:56:15.002Z,37.83
2024-03-09T05:58:43.509Z,39.47
2024-03-09T06:01:14.830Z,38.35
2024-03-09T06:06:42.282Z,36.53
2024-03-09T06:09:11.492Z,34.83
2024-03-09T06:11:51.133Z,33.17
2024-03-09T06:14:32.181Z,30.23
2024-03-09T06:20:00.973Z,29.77
2024-03-09T06:22:28.087Z,31.38
2024-03-09T06:24:55.103Z,32.10
2024-03-09T06:27:28.515Z,33.08
2024-03-09T06:30:00.743Z,23.85
2024-03-09T06:35:28.514Z,30.25
2024-03-09T06:38:18.951Z,31.13
2024-03-09T06:40:47.688Z,34.75
2024-03-09T06:43:15.838Z,34.55
2024-03-09T06:45:57.687Z,32.40
2024-03-09T06:48:26.596Z,33.65
2024-03-09T06:50:58.666Z,32.47
2024-03-09T06:53:27.949Z,32.08
2024-03-09T06:55:56.303Z,31.80
2024-03-09T06:58:23.526Z,32.03
2024-03-09T07:01:04.690Z,32.70
2024-03-09T07:03:31.765Z,29.48
2024-03-09T07:05:59.592Z,32.13
2024-03-09T07:08:26.813Z,30.15
2024-03-09T07:11:01.797Z,30.08
2024-03-09T07:13:30.719Z,29.92
2024-03-09T07:15:58.520Z,29.73
2024-03-09T07:18:26.292Z,28.55
2024-03-09T07:20:53.517Z,28.55
2024-03-09T07:23:20.336Z,26.65
2024-03-09T07:25:47.253Z,26.10
2024-03-09T07:28:19.874Z,25.83
2024-03-09T07:30:47.012Z,26.42
2024-03-09T07:33:14.296Z,24.45
2024-03-09T07:35:41.256Z,25.85
2024-03-09T07:38:08.498Z,25.40
2024-03-09T07:40:38.434Z,25.38
2024-03-09T07:43:11.464Z,25.55
2024-03-09T07:45:39.256Z,24.77
2024-03-09T07:48:06.733Z,25.33
2024-03-09T07:50:34.432Z,26.30
2024-03-09T07:53:02.069Z,24.83
2024-03-09T07:55:30.617Z,25.83
2024-03-09T07:58:12.857Z,25.60
2024-03-09T08:00:46.829Z,25.77
2024-03-09T08:03:15.310Z,24.23
2024-03-09T08:05:43.755Z,23.85
2024-03-09T08:08:14.540Z,24.27
2024-03-09T08:10:49.607Z,23.98
2024-03-09T08:15:55.639Z,23.45
2024-03-09T08:18:23.605Z,23.83
2024-03-09T08:20:51.264Z,24.00
2024-03-09T08:23:18.817Z,24.05
2024-03-09T08:25:46.907Z,24.63
2024-03-09T08:28:14.429Z,23.67
2024-03-09T08:30:42.681Z,23.80
2024-03-09T08:33:10.966Z,23.50
2024-03-09T08:35:38.774Z,22.92
2024-03-09T08:38:07.914Z,23.00
2024-03-09T08:40:36.544Z,24.42
2024-03-09T08:43:08.138Z,21.23
2024-03-09T08:45:36.090Z,22.42
2024-03-09T08:48:05.528Z,19.13
2024-03-09T08:50:35.086Z,18.50
2024-03-09T08:53:02.429Z,16.08
2024-03-09T08:55:30.077Z,16.00
2024-03-09T08:58:22.500Z,16.88
2024-03-09T09:00:49.711Z,16.50
2024-03-09T09:03:19.393Z,17.60
2024-03-09T09:05:47.011Z,18.08
2024-03-09T09:08:26.545Z,18.33
2024-03-09T09:10:55.443Z,17.40
2024-03-09T09:13:23.160Z,16.80
2024-03-09T09:15:50.961Z,16.95
2024-03-09T09:18:19.654Z,15.68
2024-03-09T09:20:49.663Z,16.52
2024-03-09T09:23:17.462Z,15.40
2024-03-09T09:25:46.720Z,16.35
2024-03-09T09:28:17.269Z,16.90
2024-03-09T09:30:45.521Z,15.70
2024-03-09T09:33:15.901Z,17.77
2024-03-09T09:35:42.789Z,15.50
2024-03-09T09:38:10.971Z,16.02
2024-03-09T09:40:38.974Z,15.48
2024-03-09T09:43:08.267Z,16.58
2024-03-09T09:45:44.365Z,16.85
2024-03-09T09:48:16.163Z,17.20
2024-03-09T09:50:46.399Z,16.00
2024-03-09T09:53:19.472Z,16.92
2024-03-09T09:55:48.645Z,16.75
2024-03-09T09:58:15.893Z,16.17
2024-03-09T10:00:43.169Z,15.85
2024-03-09T10:03:11.592Z,16.58
2024-03-09T10:05:41.121Z,16.83
2024-03-09T10:08:13.336Z,17.33
2024-03-09T10:10:44.905Z,16.50
2024-03-09T10:13:13.815Z,16.42
2024-03-09T10:15:46.241Z,16.25
2024-03-09T10:18:14.984Z,16.08
2024-03-09T10:20:42.916Z,16.33
2024-03-09T10:23:14.004Z,16.13
2024-03-09T10:25:42.159Z,15.95
2024-03-09T10:28:11.682Z,15.70
2024-03-09T10:30:39.612Z,16.00
2024-03-09T10:33:12.175Z,16.20
2024-03-09T10:35:42.000Z,15.93
2024-03-09T10:38:10.865Z,15.82
2024-03-09T10:40:41.111Z,14.80
2024-03-09T10:43:14.651Z,16.17
2024-03-09T10:45:42.754Z,17.10
2024-03-09T10:48:13.944Z,15.60
2024-03-09T10:50:47.596Z,15.77
2024-03-09T10:53:36.716Z,16.00
2024-03-09T10:56:06.787Z,16.15
2024-03-09T10:58:34.819Z,16.60
2024-03-09T11:01:02.147Z,15.45
2024-03-09T11:03:33.593Z,16.23
2024-03-09T11:06:00.668Z,15.98
2024-03-09T11:08:27.635Z,15.90
2024-03-09T11:10:55.169Z,15.25
2024-03-09T11:13:23.215Z,15.27
2024-03-09T11:15:53.557Z,18.33
2024-03-09T11:18:24.056Z,19.92
2024-03-09T11:21:03.953Z,18.40
2024-03-09T11:23:36.365Z,18.75
2024-03-09T11:26:04.931Z,17.67
2024-03-09T11:28:45.192Z,18.35
2024-03-09T11:31:18.521Z,19.08
2024-03-09T11:33:50.883Z,18.15
2024-03-09T11:36:41.927Z,19.67
2024-03-09T11:39:09.442Z,18.58
2024-03-09T11:41:37.998Z,20.17
2024-03-09T11:44:08.586Z,19.95
2024-03-09T11:46:35.986Z,19.10
2024-03-09T11:49:06.792Z,19.67
2024-03-09T11:51:40.941Z,20.05
2024-03-09T11:54:11.497Z,18.20
2024-03-09T11:56:39.845Z,18.70
2024-03-09T11:59:08.150Z,18.23
2024-03-09T12:01:38.356Z,19.73
2024-03-09T12:04:06.958Z,19.60
2024-03-09T12:06:34.748Z,19.15
2024-03-09T12:09:02.129Z,19.17
2024-03-09T12:11:32.499Z,18.48
2024-03-09T12:13:59.830Z,18.67
2024-03-09T12:16:28.443Z,18.55
2024-03-09T12:18:58.438Z,18.45
2024-03-09T12:21:27.733Z,19.13
2024-03-09T12:24:05.751Z,18.55
2024-03-09T12:26:34.395Z,17.50
2024-03-09T12:29:06.424Z,18.40
2024-03-09T12:31:35.113Z,18.75
2024-03-09T12:34:09.080Z,19.25
2024-03-09T12:36:36.289Z,18.80
2024-03-09T12:39:17.799Z,18.15
2024-03-09T12:41:53.518Z,19.13
2024-03-09T12:44:22.323Z,16.92
2024-03-09T12:46:50.516Z,16.85
2024-03-09T12:49:17.692Z,15.77
2024-03-09T12:51:48.374Z,16.45
2024-03-09T12:54:15.688Z,16.80
2024-03-09T12:56:49.613Z,17.88
2024-03-09T12:59:23.291Z,18.60
2024-03-09T13:01:52.575Z,19.30
2024-03-09T13:04:26.913Z,18.02
2024-03-09T13:06:58.085Z,17.88
2024-03-09T13:09:33.378Z,17.70
2024-03-09T13:12:06.293Z,17.13
2024-03-09T13:14:38.599Z,16.88
2024-03-09T13:17:07.731Z,17.58
2024-03-09T13:19:37.835Z,17.40
2024-03-09T13:22:07.458Z,17.25
2024-03-09T13:24:35.980Z,17.65
2024-03-09T13:27:04.075Z,17.02
2024-03-09T13:29:32.082Z,16.60
2024-03-09T13:32:00.275Z,17.75
2024-03-09T13:34:31.734Z,18.45
2024-03-09T13:36:59.604Z,18.77
2024-03-09T13:39:29.436Z,19.50
2024-03-09T13:41:58.175Z,20.25
2024-03-09T13:44:26.172Z,19.83
2024-03-09T13:46:54.215Z,19.95
2024-03-09T13:49:21.702Z,20.98
2024-03-09T13:51:49.018Z,20.20
2024-03-09T13:54:19.776Z,20.60
2024-03-09T13:56:47.699Z,19.85
2024-03-09T13:59:16.148Z,20.45
2024-03-09T14:01:47.162Z,20.83
2024-03-09T14:04:15.886Z,21.75
2024-03-09T14:06:56.949Z,20.52
2024-03-09T14:09:33.718Z,20.05
2024-03-09T14:12:04.178Z,20.80
2024-03-09T14:14:31.475Z,20.00
2024-03-09T14:16:58.880Z,20.15
2024-03-09T14:19:25.875Z,21.13
2024-03-09T14:21:53.129Z,20.60
2024-03-09T14:24:21.261Z,20.27
2024-03-09T14:26:48.445Z,20.98
2024-03-09T14:29:18.408Z,20.60
2024-03-09T14:31:48.355Z,19.52
2024-03-09T14:34:15.949Z,21.10
2024-03-09T14:36:43.080Z,21.08
2024-03-09T14:39:17.930Z,22.73
2024-03-09T14:41:45.383Z,20.70
2024-03-09T14:44:12.833Z,20.10
2024-03-09T14:46:41.472Z,21.40
2024-03-09T14:49:11.065Z,21.83
2024-03-09T14:51:38.518Z,21.15
2024-03-09T14:54:05.957Z,20.83
2024-03-09T14:56:33.000Z,22.20
2024-03-09T14:59:06.252Z,23.08
2024-03-09T15:01:33.778Z,21.75
2024-03-09T15:04:00.913Z,23.20
2024-03-09T15:06:27.887Z,21.77
2024-03-09T15:08:59.664Z,23.15
2024-03-09T15:11:27.641Z,21.70
2024-03-09T15:13:58.590Z,22.83
2024-03-09T15:16:28.568Z,22.70
2024-03-09T15:18:57.421Z,23.10
2024-03-09T15:21:28.883Z,22.27
2024-03-09T15:23:56.898Z,23.23
2024-03-09T15:26:28.661Z,24.20
2024-03-09T15:28:59.089Z,23.13
2024-03-09T15:31:28.487Z,24.55
2024-03-09T15:33:56.727Z,24.50
2024-03-09T15:36:25.213Z,24.98
2024-03-09T15:38:55.723Z,24.35
2024-03-09T15:41:23.569Z,24.80
2024-03-09T15:43:51.549Z,24.80
2024-03-09T15:46:20.209Z,24.75
2024-03-09T15:48:49.191Z,24.95
2024-03-09T15:51:19.956Z,24.77
2024-03-09T15:53:47.651Z,26.88
2024-03-09T15:56:21.526Z,26.55
2024-03-09T15:58:49.885Z,18.40
2024-03-09T16:01:23.208Z,25.45
2024-03-09T16:03:51.111Z,24.30
2024-03-09T16:06:18.353Z,26.52
2024-03-09T16:08:45.297Z,25.50
2024-03-09T16:11:12.668Z,26.50
2024-03-09T16:13:39.910Z,26.33
2024-03-09T16:16:15.403Z,27.17
2024-03-09T16:18:42.995Z,25.55
2024-03-09T16:21:10.510Z,26.35
2024-03-09T16:23:38.671Z,25.80
2024-03-09T16:26:07.547Z,25.60
2024-03-09T16:28:37.585Z,25.58
2024-03-09T16:31:05.815Z,25.92
2024-03-09T16:33:34.602Z,24.95
2024-03-09T16:36:03.728Z,26.08
2024-03-09T16:38:31.635Z,25.45
2024-03-09T16:41:02.441Z,27.05
2024-03-09T16:43:34.488Z,26.27
2024-03-09T16:46:08.948Z,25.85
2024-03-09T16:48:38.437Z,25.02
2024-03-09T16:51:09.236Z,24.75
2024-03-09T16:53:41.148Z,25.45
2024-03-09T16:56:13.899Z,23.58
2024-03-09T16:58:41.647Z,24.25
2024-03-09T17:01:09.562Z,23.25
2024-03-09T17:03:37.372Z,24.20
2024-03-09T17:06:04.675Z,24.17
2024-03-09T17:08:31.789Z,24.17
2024-03-09T17:11:10.803Z,23.52
2024-03-09T17:13:42.745Z,23.70
2024-03-09T17:16:12.208Z,22.92
2024-03-09T17:18:41.589Z,23.50
2024-03-09T17:21:08.775Z,24.05
2024-03-09T17:23:35.953Z,23.92
2024-03-09T17:26:03.676Z,22.60
2024-03-09T17:28:30.973Z,24.05
2024-03-09T17:30:58.063Z,24.15
2024-03-09T17:33:26.946Z,23.65
2024-03-09T17:35:54.813Z,23.20
2024-03-09T17:38:23.620Z,24.02
2024-03-09T17:40:51.142Z,24.98
2024-03-09T17:43:18.452Z,25.38
2024-03-09T17:45:46.824Z,24.02
2024-03-09T17:48:15.008Z,24.35
2024-03-09T17:50:43.777Z,23.70
2024-03-09T17:53:11.161Z,24.75
2024-03-09T17:55:38.568Z,23.88
2024-03-09T17:58:09.649Z,24.83
2024-03-09T18:00:40.144Z,24.67
2024-03-09T18:03:09.524Z,23.92
2024-03-09T18:05:39.117Z,24.17
2024-03-09T18:08:11.784Z,22.92
2024-03-09T18:10:42.061Z,23.38
2024-03-09T18:13:14.499Z,24.58
2024-03-09T18:15:47.019Z,25.15
2024-03-09T18:18:15.541Z,25.98
2024-03-09T18:20:44.725Z,25.65
2024-03-09T18:23:13.068Z,24.80
2024-03-09T18:25:41.274Z,24.58
2024-03-09T18:28:09.446Z,26.02
2024-03-09T18:30:37.349Z,24.92
2024-03-09T18:33:10.315Z,25.42
2024-03-09T18:35:39.215Z,24.20
2024-03-09T18:38:07.489Z,24.27
2024-03-09T18:40:35.753Z,24.63
2024-03-09T18:43:04.076Z,24.50
2024-03-09T18:45:34.602Z,25.70
2024-03-09T18:48:03.424Z,24.83
2024-03-09T18:50:31.945Z,24.83
2024-03-09T18:52:59.976Z,24.33
2024-03-09T18:55:29.147Z,25.05
2024-03-09T18:57:57.120Z,24.85
2024-03-09T19:00:31.851Z,24.92
2024-03-09T19:03:00.782Z,25.23
2024-03-09T19:05:28.770Z,25.27
2024-03-09T19:07:57.380Z,24.48
2024-03-09T19:10:28.239Z,24.85
2024-03-09T19:12:56.205Z,23.60
2024-03-09T19:15:29.531Z,23.77
2024-03-09T19:17:58.964Z,24.48
2024-03-09T19:20:26.790Z,24.67
2024-03-09T19:22:58.081Z,24.85
2024-03-09T19:25:26.033Z,24.67
2024-03-09T19:27:53.915Z,23.92
2024-03-09T19:30:27.622Z,24.95
2024-03-09T19:32:57.816Z,25.80
2024-03-09T19:35:27.146Z,26.30
2024-03-09T19:37:59.039Z,29.08
2024-03-09T19:40:27.841Z,25.98
2024-03-09T19:42:56.345Z,27.20
2024-03-09T19:45:24.696Z,27.35
2024-03-09T19:47:53.233Z,26.58
2024-03-09T19:50:27.659Z,26.92
2024-03-09T19:52:54.915Z,19.90
2024-03-09T19:55:25.524Z,25.80
2024-03-09T19:57:53.613Z,26.95
2024-03-09T20:00:24.141Z,25.85
2024-03-09T20:02:53.038Z,26.83
2024-03-09T20:05:22.387Z,26.17
2024-03-09T20:07:57.085Z,25.83
2024-03-09T20:10:26.851Z,26.17
2024-03-09T20:12:58.341Z,27.20
2024-03-09T20:15:28.659Z,27.08
2024-03-09T20:17:56.972Z,27.20
2024-03-09T20:20:26.180Z,26.13
2024-03-09T20:22:58.721Z,26.05
2024-03-09T20:25:28.208Z,26.20
2024-03-09T20:27:56.500Z,27.02
2024-03-09T20:30:23.856Z,26.30
2024-03-09T20:32:51.268Z,26.67
2024-03-09T20:35:19.695Z,28.10
2024-03-09T20:37:48.624Z,27.50
2024-03-09T20:40:17.480Z,27.45
2024-03-09T20:42:53.104Z,28.45
2024-03-09T20:45:22.298Z,27.60
2024-03-09T20:47:50.748Z,27.15
2024-03-09T20:50:22.002Z,28.15
2024-03-09T20:52:54.573Z,26.83
2024-03-09T20:55:22.246Z,28.55
2024-03-09T20:57:50.312Z,29.45
2024-03-09T21:00:24.122Z,28.40
2024-03-09T21:02:52.314Z,30.35
2024-03-09T21:05:20.320Z,29.05
2024-03-09T21:07:47.580Z,28.98
2024-03-09T21:10:15.023Z,29.55
2024-03-09T21:12:50.792Z,29.98
2024-03-09T21:15:22.900Z,30.30
2024-03-09T21:17:50.209Z,29.35
2024-03-09T21:20:19.869Z,28.77
2024-03-09T21:22:50.264Z,28.63
2024-03-09T21:25:17.864Z,29.75
2024-03-09T21:27:45.582Z,29.10
2024-03-09T21:30:17.657Z,28.30
2024-03-09T21:32:48.947Z,29.00
2024-03-09T21:35:20.958Z,30.98
2024-03-09T21:37:53.111Z,29.63
2024-03-09T21:40:22.072Z,30.42
2024-03-09T21:42:49.269Z,30.42
2024-03-09T21:45:16.410Z,30.80
2024-03-09T21:47:47.642Z,30.50
2024-03-09T21:50:17.068Z,30.80
2024-03-09T21:52:45.598Z,31.13
2024-03-09T21:55:14.744Z,31.65
2024-03-09T21:57:44.668Z,32.90
2024-03-09T22:00:22.385Z,31.98
2024-03-09T22:02:57.901Z,34.72
2024-03-09T22:05:30.018Z,34.67
2024-03-09T22:07:58.639Z,32.58
2024-03-09T22:10:29.083Z,32.00
2024-03-09T22:12:57.358Z,32.10
2024-03-09T22:15:27.434Z,33.10
2024-03-09T22:17:56.292Z,34.42
2024-03-09T22:20:23.806Z,33.83
2024-03-09T22:22:50.969Z,34.05
2024-03-09T22:25:27.074Z,32.53
2024-03-09T22:27:54.994Z,32.72
2024-03-09T22:30:23.062Z,32.40
2024-03-09T22:32:50.291Z,34.35
2024-03-09T22:35:17.979Z,33.88
2024-03-09T22:37:46.214Z,33.83
2024-03-09T22:40:15.438Z,35.22
2024-03-09T22:42:42.709Z,34.15
2024-03-09T22:45:16.079Z,33.65
2024-03-09T22:47:48.352Z,34.30
2024-03-09T22:50:17.238Z,34.03
2024-03-09T22:52:44.888Z,31.75
2024-03-09T22:55:12.462Z,33.00
2024-03-09T22:57:39.778Z,35.03
2024-03-09T23:00:20.224Z,33.08
2024-03-09T23:02:48.020Z,34.38
2024-03-09T23:05:18.051Z,33.65
2024-03-09T23:07:46.025Z,34.05
2024-03-09T23:10:15.228Z,33.83
2024-03-09T23:12:45.631Z,34.55
2024-03-09T23:15:17.019Z,34.47
2024-03-09T23:17:44.919Z,34.65
2024-03-09T23:20:14.178Z,35.03
2024-03-09T23:22:43.372Z,35.63
2024-03-09T23:25:13.578Z,35.60
2024-03-09T23:27:41.314Z,34.60
2024-03-09T23:30:10.324Z,33.92
2024-03-09T23:32:37.436Z,34.45
2024-03-09T23:35:07.902Z,35.38
2024-03-09T23:37:35.006Z,36.03
2024-03-09T23:40:02.227Z,34.38
2024-03-09T23:42:30.084Z,35.95
2024-03-09T23:44:57.401Z,36.25
2024-03-09T23:47:24.413Z,34.72
2024-03-09T23:49:51.782Z,34.85
2024-03-09T23:52:18.994Z,34.10
2024-03-09T23:54:45.918Z,33.97
2024-03-09T23:57:13.826Z,34.70
2024-03-09T23:59:41.550Z,33.58
